sensor_id;sensor_type;location;lat;lon;timestamp;P1;durP1;ratioP1;P2;durP2;ratioP2
38162;SDS011;23977;53.078;18.248;2023-02-28T00:00:10;72.00;;;26.52;;
38162;SDS011;23977;53.078;18.248;2023-02-28T00:02:58;73.38;;;26.90;;
38162;SDS011;23977;53.078;18.248;2023-02-28T00:05:25;71.18;;;25.90;;
38162;SDS011;23977;53.078;18.248;2023-02-28T00:07:51;66.28;;;25.15;;
38162;SDS011;23977;53.078;18.248;2023-02-28T00:10:18;68.47;;;24.92;;
38162;SDS011;23977;53.078;18.248;2023-02-28T00:12:52;68.55;;;25.38;;
38162;SDS011;23977;53.078;18.248;2023-02-28T00:15:19;67.75;;;24.67;;
38162;SDS011;23977;53.078;18.248;2023-02-28T00:17:45;71.43;;;24.77;;
38162;SDS011;23977;53.078;18.248;2023-02-28T00:20:12;69.78;;;25.02;;
38162;SDS011;23977;53.078;18.248;2023-02-28T00:22:39;60.63;;;24.05;;
38162;SDS011;23977;53.078;18.248;2023-02-28T00:25:07;67.68;;;25.15;;
38162;SDS011;23977;53.078;18.248;2023-02-28T00:27:35;69.68;;;26.02;;
38162;SDS011;23977;53.078;18.248;2023-02-28T00:30:02;75.20;;;28.08;;
38162;SDS011;23977;53.078;18.248;2023-02-28T00:32:29;79.43;;;30.13;;
38162;SDS011;23977;53.078;18.248;2023-02-28T00:34:55;69.45;;;25.85;;
38162;SDS011;23977;53.078;18.248;2023-02-28T00:37:21;70.18;;;24.95;;
38162;SDS011;23977;53.078;18.248;2023-02-28T00:39:47;65.45;;;23.67;;
38162;SDS011;23977;53.078;18.248;2023-02-28T00:42:12;62.17;;;23.77;;
38162;SDS011;23977;53.078;18.248;2023-02-28T00:44:38;74.50;;;26.45;;
38162;SDS011;23977;53.078;18.248;2023-02-28T00:47:04;68.88;;;23.88;;
38162;SDS011;23977;53.078;18.248;2023-02-28T00:49:30;71.53;;;25.88;;
38162;SDS011;23977;53.078;18.248;2023-02-28T00:51:56;68.80;;;25.27;;
38162;SDS011;23977;53.078;18.248;2023-02-28T00:54:22;71.43;;;26.85;;
38162;SDS011;23977;53.078;18.248;2023-02-28T00:56:48;69.22;;;25.13;;
38162;SDS011;23977;53.078;18.248;2023-02-28T00:59:16;65.82;;;24.15;;
38162;SDS011;23977;53.078;18.248;2023-02-28T01:01:43;56.90;;;22.13;;
38162;SDS011;23977;53.078;18.248;2023-02-28T01:04:11;53.65;;;19.85;;
38162;SDS011;23977;53.078;18.248;2023-02-28T01:06:37;52.08;;;19.20;;
38162;SDS011;23977;53.078;18.248;2023-02-28T01:09:04;59.97;;;21.33;;
38162;SDS011;23977;53.078;18.248;2023-02-28T01:11:31;57.30;;;21.65;;
38162;SDS011;23977;53.078;18.248;2023-02-28T01:13:57;57.03;;;21.60;;
38162;SDS011;23977;53.078;18.248;2023-02-28T01:16:23;57.63;;;21.00;;
38162;SDS011;23977;53.078;18.248;2023-02-28T01:18:49;50.97;;;20.15;;
38162;SDS011;23977;53.078;18.248;2023-02-28T01:21:16;61.90;;;22.13;;
38162;SDS011;23977;53.078;18.248;2023-02-28T01:23:45;66.60;;;22.95;;
38162;SDS011;23977;53.078;18.248;2023-02-28T01:26:15;73.93;;;24.63;;
38162;SDS011;23977;53.078;18.248;2023-02-28T01:28:42;68.78;;;22.88;;
38162;SDS011;23977;53.078;18.248;2023-02-28T01:31:08;75.35;;;24.58;;
38162;SDS011;23977;53.078;18.248;2023-02-28T01:33:34;64.85;;;22.98;;
38162;SDS011;23977;53.078;18.248;2023-02-28T01:36:04;63.83;;;23.33;;
38162;SDS011;23977;53.078;18.248;2023-02-28T01:38:33;61.42;;;23.45;;
38162;SDS011;23977;53.078;18.248;2023-02-28T01:40:59;63.00;;;22.48;;
38162;SDS011;23977;53.078;18.248;2023-02-28T01:43:31;65.32;;;24.23;;
38162;SDS011;23977;53.078;18.248;2023-02-28T01:46:17;65.38;;;24.52;;
38162;SDS011;23977;53.078;18.248;2023-02-28T01:48:44;63.42;;;22.80;;
38162;SDS011;23977;53.078;18.248;2023-02-28T01:51:29;63.63;;;22.75;;
38162;SDS011;23977;53.078;18.248;2023-02-28T01:53:58;55.55;;;20.38;;
38162;SDS011;23977;53.078;18.248;2023-02-28T01:56:28;58.45;;;21.08;;
38162;SDS011;23977;53.078;18.248;2023-02-28T01:58:56;54.38;;;19.83;;
38162;SDS011;23977;53.078;18.248;2023-02-28T02:01:22;47.85;;;18.92;;
38162;SDS011;23977;53.078;18.248;2023-02-28T02:03:50;44.33;;;17.52;;
38162;SDS011;23977;53.078;18.248;2023-02-28T02:06:21;41.03;;;17.35;;
38162;SDS011;23977;53.078;18.248;2023-02-28T02:08:53;43.80;;;17.75;;
38162;SDS011;23977;53.078;18.248;2023-02-28T02:11:19;47.65;;;18.27;;
38162;SDS011;23977;53.078;18.248;2023-02-28T02:19:51;44.97;;;17.88;;
38162;SDS011;23977;53.078;18.248;2023-02-28T02:33:40;41.05;;;16.63;;
38162;SDS011;23977;53.078;18.248;2023-02-28T02:36:18;40.20;;;16.08;;
38162;SDS011;23977;53.078;18.248;2023-02-28T02:39:02;38.55;;;15.85;;
38162;SDS011;23977;53.078;18.248;2023-02-28T02:41:36;46.33;;;18.33;;
38162;SDS011;23977;53.078;18.248;2023-02-28T02:44:19;45.47;;;17.92;;
38162;SDS011;23977;53.078;18.248;2023-02-28T02:46:58;43.65;;;17.08;;
38162;SDS011;23977;53.078;18.248;2023-02-28T02:49:30;45.53;;;18.08;;
38162;SDS011;23977;53.078;18.248;2023-02-28T02:52:00;38.60;;;16.70;;
38162;SDS011;23977;53.078;18.248;2023-02-28T02:54:30;43.95;;;17.10;;
38162;SDS011;23977;53.078;18.248;2023-02-28T02:57:00;44.17;;;17.58;;
38162;SDS011;23977;53.078;18.248;2023-02-28T02:59:30;40.30;;;18.17;;
38162;SDS011;23977;53.078;18.248;2023-02-28T03:02:01;47.10;;;19.02;;
38162;SDS011;23977;53.078;18.248;2023-02-28T03:04:33;45.55;;;18.17;;
38162;SDS011;23977;53.078;18.248;2023-02-28T03:07:03;47.15;;;18.67;;
38162;SDS011;23977;53.078;18.248;2023-02-28T03:09:32;45.30;;;17.50;;
38162;SDS011;23977;53.078;18.248;2023-02-28T03:11:59;45.60;;;18.55;;
38162;SDS011;23977;53.078;18.248;2023-02-28T03:14:28;40.85;;;18.00;;
38162;SDS011;23977;53.078;18.248;2023-02-28T03:26:31;45.33;;;18.35;;
38162;SDS011;23977;53.078;18.248;2023-02-28T03:31:17;43.67;;;17.70;;
38162;SDS011;23977;53.078;18.248;2023-02-28T03:33:48;42.00;;;18.20;;
38162;SDS011;23977;53.078;18.248;2023-02-28T03:36:22;46.13;;;19.13;;
38162;SDS011;23977;53.078;18.248;2023-02-28T03:38:59;45.50;;;18.95;;
38162;SDS011;23977;53.078;18.248;2023-02-28T03:41:31;44.80;;;18.00;;
38162;SDS011;23977;53.078;18.248;2023-02-28T03:44:23;41.95;;;18.60;;
38162;SDS011;23977;53.078;18.248;2023-02-28T03:46:56;46.20;;;18.13;;
38162;SDS011;23977;53.078;18.248;2023-02-28T03:49:47;46.58;;;18.73;;
38162;SDS011;23977;53.078;18.248;2023-02-28T03:52:14;44.88;;;18.73;;
38162;SDS011;23977;53.078;18.248;2023-02-28T03:54:41;44.53;;;18.95;;
38162;SDS011;23977;53.078;18.248;2023-02-28T03:57:12;48.58;;;19.17;;
38162;SDS011;23977;53.078;18.248;2023-02-28T03:59:47;47.17;;;17.95;;
38162;SDS011;23977;53.078;18.248;2023-02-28T04:02:19;46.78;;;18.17;;
38162;SDS011;23977;53.078;18.248;2023-02-28T04:04:45;44.60;;;17.90;;
38162;SDS011;23977;53.078;18.248;2023-02-28T04:07:14;40.72;;;17.63;;
38162;SDS011;23977;53.078;18.248;2023-02-28T04:09:40;41.20;;;17.33;;
38162;SDS011;23977;53.078;18.248;2023-02-28T04:12:06;42.20;;;18.15;;
38162;SDS011;23977;53.078;18.248;2023-02-28T04:14:32;45.47;;;19.33;;
38162;SDS011;23977;53.078;18.248;2023-02-28T04:16:58;43.45;;;18.50;;
38162;SDS011;23977;53.078;18.248;2023-02-28T04:19:23;47.78;;;18.95;;
38162;SDS011;23977;53.078;18.248;2023-02-28T04:21:50;40.92;;;18.40;;
38162;SDS011;23977;53.078;18.248;2023-02-28T04:24:18;38.05;;;17.50;;
38162;SDS011;23977;53.078;18.248;2023-02-28T04:26:49;42.25;;;17.52;;
38162;SDS011;23977;53.078;18.248;2023-02-28T04:29:34;40.78;;;17.65;;
38162;SDS011;23977;53.078;18.248;2023-02-28T04:32:00;40.08;;;17.90;;
38162;SDS011;23977;53.078;18.248;2023-02-28T04:34:27;39.53;;;17.85;;
38162;SDS011;23977;53.078;18.248;2023-02-28T04:36:54;38.40;;;16.92;;
38162;SDS011;23977;53.078;18.248;2023-02-28T04:39:21;42.40;;;17.75;;
38162;SDS011;23977;53.078;18.248;2023-02-28T04:41:48;55.28;;;19.50;;
38162;SDS011;23977;53.078;18.248;2023-02-28T04:44:14;88.88;;;24.95;;
38162;SDS011;23977;53.078;18.248;2023-02-28T04:46:41;72.85;;;23.55;;
38162;SDS011;23977;53.078;18.248;2023-02-28T04:49:07;72.88;;;23.48;;
38162;SDS011;23977;53.078;18.248;2023-02-28T04:51:34;93.60;;;27.27;;
38162;SDS011;23977;53.078;18.248;2023-02-28T04:53:59;112.28;;;33.33;;
38162;SDS011;23977;53.078;18.248;2023-02-28T04:56:25;99.22;;;31.17;;
38162;SDS011;23977;53.078;18.248;2023-02-28T04:58:51;96.32;;;29.95;;
38162;SDS011;23977;53.078;18.248;2023-02-28T05:01:28;117.13;;;35.85;;
38162;SDS011;23977;53.078;18.248;2023-02-28T05:03:56;169.32;;;48.30;;
38162;SDS011;23977;53.078;18.248;2023-02-28T05:06:26;139.73;;;40.72;;
38162;SDS011;23977;53.078;18.248;2023-02-28T05:08:52;148.77;;;43.80;;
38162;SDS011;23977;53.078;18.248;2023-02-28T05:11:23;98.60;;;32.40;;
38162;SDS011;23977;53.078;18.248;2023-02-28T05:13:54;74.47;;;27.10;;
38162;SDS011;23977;53.078;18.248;2023-02-28T05:16:20;70.50;;;25.55;;
38162;SDS011;23977;53.078;18.248;2023-02-28T05:18:47;74.03;;;26.15;;
38162;SDS011;23977;53.078;18.248;2023-02-28T05:21:35;73.13;;;25.27;;
38162;SDS011;23977;53.078;18.248;2023-02-28T05:24:03;67.35;;;25.40;;
38162;SDS011;23977;53.078;18.248;2023-02-28T05:26:34;63.22;;;23.92;;
38162;SDS011;23977;53.078;18.248;2023-02-28T05:29:01;65.32;;;23.15;;
38162;SDS011;23977;53.078;18.248;2023-02-28T05:31:27;67.45;;;23.88;;
38162;SDS011;23977;53.078;18.248;2023-02-28T05:33:53;64.63;;;24.73;;
38162;SDS011;23977;53.078;18.248;2023-02-28T05:36:19;52.63;;;21.27;;
38162;SDS011;23977;53.078;18.248;2023-02-28T05:38:48;138.52;;;36.33;;
38162;SDS011;23977;53.078;18.248;2023-02-28T05:41:15;147.00;;;38.33;;
38162;SDS011;23977;53.078;18.248;2023-02-28T05:43:41;179.90;;;42.83;;
38162;SDS011;23977;53.078;18.248;2023-02-28T05:46:08;150.13;;;40.90;;
38162;SDS011;23977;53.078;18.248;2023-02-28T05:48:35;90.72;;;30.95;;
38162;SDS011;23977;53.078;18.248;2023-02-28T05:51:03;80.93;;;27.83;;
38162;SDS011;23977;53.078;18.248;2023-02-28T05:53:29;83.28;;;28.70;;
38162;SDS011;23977;53.078;18.248;2023-02-28T05:55:56;73.88;;;26.48;;
38162;SDS011;23977;53.078;18.248;2023-02-28T05:58:21;67.80;;;25.55;;
38162;SDS011;23977;53.078;18.248;2023-02-28T06:00:47;57.65;;;23.55;;
38162;SDS011;23977;53.078;18.248;2023-02-28T06:03:13;78.63;;;27.70;;
38162;SDS011;23977;53.078;18.248;2023-02-28T06:05:39;98.35;;;31.88;;
38162;SDS011;23977;53.078;18.248;2023-02-28T06:08:04;74.72;;;27.17;;
38162;SDS011;23977;53.078;18.248;2023-02-28T06:10:35;114.30;;;34.97;;
38162;SDS011;23977;53.078;18.248;2023-02-28T06:13:01;110.88;;;34.33;;
38162;SDS011;23977;53.078;18.248;2023-02-28T06:15:28;142.18;;;39.90;;
38162;SDS011;23977;53.078;18.248;2023-02-28T06:17:54;126.03;;;37.95;;
38162;SDS011;23977;53.078;18.248;2023-02-28T06:20:24;198.40;;;50.97;;
38162;SDS011;23977;53.078;18.248;2023-02-28T06:22:54;216.32;;;54.13;;
38162;SDS011;23977;53.078;18.248;2023-02-28T06:25:21;252.05;;;60.25;;
38162;SDS011;23977;53.078;18.248;2023-02-28T06:27:47;210.13;;;55.83;;
38162;SDS011;23977;53.078;18.248;2023-02-28T06:30:13;176.63;;;47.10;;
38162;SDS011;23977;53.078;18.248;2023-02-28T06:32:39;126.80;;;44.28;;
38162;SDS011;23977;53.078;18.248;2023-02-28T06:35:05;107.97;;;38.15;;
38162;SDS011;23977;53.078;18.248;2023-02-28T06:37:31;187.93;;;47.45;;
38162;SDS011;23977;53.078;18.248;2023-02-28T06:39:57;97.68;;;35.58;;
38162;SDS011;23977;53.078;18.248;2023-02-28T06:42:23;76.20;;;31.92;;
38162;SDS011;23977;53.078;18.248;2023-02-28T06:44:54;169.02;;;46.85;;
38162;SDS011;23977;53.078;18.248;2023-02-28T06:47:21;167.80;;;50.58;;
38162;SDS011;23977;53.078;18.248;2023-02-28T06:49:47;200.68;;;59.60;;
38162;SDS011;23977;53.078;18.248;2023-02-28T06:52:16;235.13;;;64.90;;
38162;SDS011;23977;53.078;18.248;2023-02-28T06:54:42;194.70;;;60.85;;
38162;SDS011;23977;53.078;18.248;2023-02-28T06:57:08;136.98;;;52.72;;
38162;SDS011;23977;53.078;18.248;2023-02-28T06:59:34;105.22;;;47.95;;
38162;SDS011;23977;53.078;18.248;2023-02-28T07:02:01;79.47;;;43.53;;
38162;SDS011;23977;53.078;18.248;2023-02-28T07:04:28;75.43;;;39.88;;
38162;SDS011;23977;53.078;18.248;2023-02-28T07:06:57;76.68;;;40.45;;
38162;SDS011;23977;53.078;18.248;2023-02-28T07:09:23;81.68;;;42.55;;
38162;SDS011;23977;53.078;18.248;2023-02-28T07:11:49;69.30;;;38.60;;
38162;SDS011;23977;53.078;18.248;2023-02-28T07:14:39;68.25;;;38.40;;
38162;SDS011;23977;53.078;18.248;2023-02-28T07:17:09;66.93;;;37.88;;
38162;SDS011;23977;53.078;18.248;2023-02-28T07:19:41;80.53;;;47.03;;
38162;SDS011;23977;53.078;18.248;2023-02-28T07:22:07;83.40;;;51.17;;
38162;SDS011;23977;53.078;18.248;2023-02-28T07:24:33;90.97;;;56.70;;
38162;SDS011;23977;53.078;18.248;2023-02-28T07:27:00;83.13;;;53.67;;
38162;SDS011;23977;53.078;18.248;2023-02-28T07:29:26;78.82;;;50.65;;
38162;SDS011;23977;53.078;18.248;2023-02-28T07:31:53;74.28;;;50.50;;
38162;SDS011;23977;53.078;18.248;2023-02-28T07:34:21;71.60;;;48.53;;
38162;SDS011;23977;53.078;18.248;2023-02-28T07:36:48;67.03;;;45.72;;
38162;SDS011;23977;53.078;18.248;2023-02-28T07:39:13;58.35;;;41.88;;
38162;SDS011;23977;53.078;18.248;2023-02-28T07:41:39;56.75;;;41.28;;
38162;SDS011;23977;53.078;18.248;2023-02-28T07:44:09;56.28;;;41.35;;
38162;SDS011;23977;53.078;18.248;2023-02-28T07:46:36;47.35;;;35.78;;
38162;SDS011;23977;53.078;18.248;2023-02-28T07:49:02;37.47;;;29.65;;
38162;SDS011;23977;53.078;18.248;2023-02-28T07:51:29;35.33;;;27.35;;
38162;SDS011;23977;53.078;18.248;2023-02-28T07:53:55;31.77;;;25.02;;
38162;SDS011;23977;53.078;18.248;2023-02-28T07:56:21;32.45;;;25.05;;
38162;SDS011;23977;53.078;18.248;2023-02-28T07:58:47;29.30;;;23.70;;
38162;SDS011;23977;53.078;18.248;2023-02-28T08:01:13;26.67;;;22.10;;
38162;SDS011;23977;53.078;18.248;2023-02-28T08:03:39;30.95;;;24.17;;
38162;SDS011;23977;53.078;18.248;2023-02-28T08:06:07;44.65;;;31.58;;
38162;SDS011;23977;53.078;18.248;2023-02-28T08:08:39;38.35;;;28.65;;
38162;SDS011;23977;53.078;18.248;2023-02-28T08:11:05;30.88;;;24.10;;
38162;SDS011;23977;53.078;18.248;2023-02-28T08:13:31;29.77;;;22.20;;
38162;SDS011;23977;53.078;18.248;2023-02-28T08:15:57;26.92;;;21.67;;
38162;SDS011;23977;53.078;18.248;2023-02-28T08:18:23;28.45;;;20.92;;
38162;SDS011;23977;53.078;18.248;2023-02-28T08:20:49;31.55;;;21.88;;
38162;SDS011;23977;53.078;18.248;2023-02-28T08:23:15;30.98;;;20.77;;
38162;SDS011;23977;53.078;18.248;2023-02-28T08:25:41;29.75;;;20.33;;
38162;SDS011;23977;53.078;18.248;2023-02-28T08:28:06;28.45;;;20.98;;
38162;SDS011;23977;53.078;18.248;2023-02-28T08:30:32;24.55;;;19.63;;
38162;SDS011;23977;53.078;18.248;2023-02-28T08:32:57;24.25;;;18.65;;
38162;SDS011;23977;53.078;18.248;2023-02-28T08:35:23;21.90;;;18.08;;
38162;SDS011;23977;53.078;18.248;2023-02-28T08:37:49;19.83;;;15.70;;
38162;SDS011;23977;53.078;18.248;2023-02-28T08:40:16;18.80;;;16.33;;
38162;SDS011;23977;53.078;18.248;2023-02-28T08:42:44;18.25;;;15.82;;
38162;SDS011;23977;53.078;18.248;2023-02-28T08:45:11;19.92;;;17.23;;
38162;SDS011;23977;53.078;18.248;2023-02-28T08:47:37;21.65;;;16.13;;
38162;SDS011;23977;53.078;18.248;2023-02-28T08:50:04;20.33;;;16.95;;
38162;SDS011;23977;53.078;18.248;2023-02-28T08:52:30;23.15;;;16.75;;
38162;SDS011;23977;53.078;18.248;2023-02-28T08:54:56;15.90;;;13.35;;
38162;SDS011;23977;53.078;18.248;2023-02-28T08:57:21;14.57;;;11.55;;
38162;SDS011;23977;53.078;18.248;2023-02-28T08:59:47;16.80;;;12.73;;
38162;SDS011;23977;53.078;18.248;2023-02-28T09:02:13;12.48;;;9.43;;
38162;SDS011;23977;53.078;18.248;2023-02-28T09:04:40;15.88;;;10.65;;
38162;SDS011;23977;53.078;18.248;2023-02-28T09:07:06;13.90;;;11.63;;
38162;SDS011;23977;53.078;18.248;2023-02-28T09:09:33;10.90;;;9.20;;
38162;SDS011;23977;53.078;18.248;2023-02-28T09:11:58;11.90;;;9.93;;
38162;SDS011;23977;53.078;18.248;2023-02-28T09:14:24;11.10;;;9.55;;
38162;SDS011;23977;53.078;18.248;2023-02-28T09:16:50;13.00;;;10.75;;
38162;SDS011;23977;53.078;18.248;2023-02-28T09:19:16;14.25;;;11.30;;
38162;SDS011;23977;53.078;18.248;2023-02-28T09:21:41;15.27;;;12.20;;
38162;SDS011;23977;53.078;18.248;2023-02-28T09:24:07;13.90;;;11.60;;
38162;SDS011;23977;53.078;18.248;2023-02-28T09:26:33;13.00;;;10.02;;
38162;SDS011;23977;53.078;18.248;2023-02-28T09:28:59;13.82;;;9.80;;
38162;SDS011;23977;53.078;18.248;2023-02-28T09:31:26;14.40;;;9.65;;
38162;SDS011;23977;53.078;18.248;2023-02-28T09:33:55;11.82;;;8.30;;
38162;SDS011;23977;53.078;18.248;2023-02-28T09:36:22;11.98;;;9.45;;
38162;SDS011;23977;53.078;18.248;2023-02-28T09:38:48;10.40;;;8.65;;
38162;SDS011;23977;53.078;18.248;2023-02-28T09:41:17;14.43;;;10.40;;
38162;SDS011;23977;53.078;18.248;2023-02-28T09:43:47;12.90;;;9.52;;
38162;SDS011;23977;53.078;18.248;2023-02-28T09:46:32;10.88;;;8.68;;
38162;SDS011;23977;53.078;18.248;2023-02-28T09:49:05;14.10;;;9.48;;
38162;SDS011;23977;53.078;18.248;2023-02-28T09:51:50;15.93;;;8.65;;
38162;SDS011;23977;53.078;18.248;2023-02-28T09:54:22;12.48;;;9.88;;
38162;SDS011;23977;53.078;18.248;2023-02-28T09:56:51;14.70;;;9.40;;
38162;SDS011;23977;53.078;18.248;2023-02-28T09:59:24;12.10;;;8.73;;
38162;SDS011;23977;53.078;18.248;2023-02-28T10:02:10;11.20;;;8.05;;
38162;SDS011;23977;53.078;18.248;2023-02-28T10:04:46;10.02;;;6.85;;
38162;SDS011;23977;53.078;18.248;2023-02-28T10:12:46;8.10;;;5.10;;
38162;SDS011;23977;53.078;18.248;2023-02-28T10:15:14;7.40;;;5.25;;
38162;SDS011;23977;53.078;18.248;2023-02-28T10:17:42;10.38;;;7.28;;
38162;SDS011;23977;53.078;18.248;2023-02-28T10:20:14;9.73;;;6.90;;
38162;SDS011;23977;53.078;18.248;2023-02-28T10:23:03;9.63;;;7.20;;
38162;SDS011;23977;53.078;18.248;2023-02-28T10:25:33;11.63;;;8.10;;
38162;SDS011;23977;53.078;18.248;2023-02-28T10:30:36;12.20;;;7.82;;
38162;SDS011;23977;53.078;18.248;2023-02-28T10:33:05;10.32;;;6.22;;
38162;SDS011;23977;53.078;18.248;2023-02-28T10:35:31;7.65;;;5.25;;
38162;SDS011;23977;53.078;18.248;2023-02-28T10:37:59;6.88;;;4.50;;
38162;SDS011;23977;53.078;18.248;2023-02-28T10:40:35;8.80;;;4.88;;
38162;SDS011;23977;53.078;18.248;2023-02-28T10:43:02;8.07;;;4.93;;
38162;SDS011;23977;53.078;18.248;2023-02-28T10:45:32;9.13;;;6.00;;
38162;SDS011;23977;53.078;18.248;2023-02-28T10:48:03;11.55;;;6.15;;
38162;SDS011;23977;53.078;18.248;2023-02-28T10:50:33;11.05;;;6.50;;
38162;SDS011;23977;53.078;18.248;2023-02-28T10:53:05;11.40;;;6.50;;
38162;SDS011;23977;53.078;18.248;2023-02-28T10:55:33;10.50;;;6.43;;
38162;SDS011;23977;53.078;18.248;2023-02-28T10:57:58;34.10;;;22.65;;
38162;SDS011;23977;53.078;18.248;2023-02-28T11:00:24;12.82;;;7.28;;
38162;SDS011;23977;53.078;18.248;2023-02-28T11:02:56;11.40;;;6.60;;
38162;SDS011;23977;53.078;18.248;2023-02-28T11:05:32;14.95;;;8.50;;
38162;SDS011;23977;53.078;18.248;2023-02-28T11:08:16;15.45;;;8.80;;
38162;SDS011;23977;53.078;18.248;2023-02-28T11:10:44;15.98;;;8.80;;
38162;SDS011;23977;53.078;18.248;2023-02-28T11:13:19;12.43;;;6.70;;
38162;SDS011;23977;53.078;18.248;2023-02-28T11:15:51;12.90;;;6.88;;
38162;SDS011;23977;53.078;18.248;2023-02-28T11:18:24;12.48;;;6.40;;
38162;SDS011;23977;53.078;18.248;2023-02-28T11:20:55;13.02;;;6.57;;
38162;SDS011;23977;53.078;18.248;2023-02-28T11:23:24;12.45;;;6.22;;
38162;SDS011;23977;53.078;18.248;2023-02-28T11:25:54;10.13;;;5.53;;
38162;SDS011;23977;53.078;18.248;2023-02-28T11:28:33;12.63;;;6.55;;
38162;SDS011;23977;53.078;18.248;2023-02-28T11:31:03;11.02;;;6.15;;
38162;SDS011;23977;53.078;18.248;2023-02-28T11:33:42;10.50;;;5.85;;
38162;SDS011;23977;53.078;18.248;2023-02-28T11:36:28;12.45;;;5.68;;
38162;SDS011;23977;53.078;18.248;2023-02-28T11:38:56;9.55;;;5.40;;
38162;SDS011;23977;53.078;18.248;2023-02-28T11:44:34;7.43;;;4.20;;
38162;SDS011;23977;53.078;18.248;2023-02-28T11:47:22;8.90;;;4.80;;
38162;SDS011;23977;53.078;18.248;2023-02-28T11:50:16;9.15;;;4.53;;
38162;SDS011;23977;53.078;18.248;2023-02-28T11:53:21;9.73;;;4.80;;
38162;SDS011;23977;53.078;18.248;2023-02-28T11:56:11;8.45;;;4.72;;
38162;SDS011;23977;53.078;18.248;2023-02-28T11:59:22;8.27;;;4.43;;
38162;SDS011;23977;53.078;18.248;2023-02-28T12:02:13;11.35;;;5.90;;
38162;SDS011;23977;53.078;18.248;2023-02-28T12:05:14;10.60;;;5.60;;
38162;SDS011;23977;53.078;18.248;2023-02-28T12:10:28;11.35;;;5.32;;
38162;SDS011;23977;53.078;18.248;2023-02-28T12:22:12;9.73;;;5.68;;
38162;SDS011;23977;53.078;18.248;2023-02-28T12:25:09;11.02;;;5.93;;
38162;SDS011;23977;53.078;18.248;2023-02-28T12:27:48;12.00;;;6.57;;
38162;SDS011;23977;53.078;18.248;2023-02-28T12:30:21;13.95;;;7.28;;
38162;SDS011;23977;53.078;18.248;2023-02-28T12:32:54;13.32;;;6.32;;
38162;SDS011;23977;53.078;18.248;2023-02-28T12:35:31;12.80;;;6.93;;
38162;SDS011;23977;53.078;18.248;2023-02-28T12:40:56;12.75;;;6.18;;
38162;SDS011;23977;53.078;18.248;2023-02-28T12:43:29;12.07;;;6.88;;
38162;SDS011;23977;53.078;18.248;2023-02-28T12:46:22;14.00;;;6.65;;
38162;SDS011;23977;53.078;18.248;2023-02-28T12:48:53;17.90;;;7.40;;
38162;SDS011;23977;53.078;18.248;2023-02-28T12:51:24;11.63;;;6.10;;
38162;SDS011;23977;53.078;18.248;2023-02-28T12:54:04;10.90;;;5.80;;
38162;SDS011;23977;53.078;18.248;2023-02-28T12:56:44;11.82;;;5.72;;
38162;SDS011;23977;53.078;18.248;2023-02-28T12:59:38;9.82;;;5.35;;
38162;SDS011;23977;53.078;18.248;2023-02-28T13:02:16;11.00;;;5.22;;
38162;SDS011;23977;53.078;18.248;2023-02-28T13:05:23;10.32;;;6.00;;
38162;SDS011;23977;53.078;18.248;2023-02-28T13:07:56;11.15;;;5.93;;
38162;SDS011;23977;53.078;18.248;2023-02-28T13:10:24;10.27;;;5.65;;
38162;SDS011;23977;53.078;18.248;2023-02-28T13:13:11;11.85;;;5.70;;
38162;SDS011;23977;53.078;18.248;2023-02-28T13:15:41;11.10;;;5.57;;
38162;SDS011;23977;53.078;18.248;2023-02-28T13:18:28;13.07;;;6.05;;
38162;SDS011;23977;53.078;18.248;2023-02-28T13:20:58;11.13;;;5.75;;
38162;SDS011;23977;53.078;18.248;2023-02-28T13:23:37;10.63;;;6.13;;
38162;SDS011;23977;53.078;18.248;2023-02-28T13:26:06;11.25;;;6.07;;
38162;SDS011;23977;53.078;18.248;2023-02-28T13:31:18;12.63;;;5.85;;
38162;SDS011;23977;53.078;18.248;2023-02-28T13:47:22;11.18;;;5.68;;
38162;SDS011;23977;53.078;18.248;2023-02-28T13:49:30;12.27;;;5.68;;
38162;SDS011;23977;53.078;18.248;2023-02-28T13:57:31;10.98;;;5.75;;
38162;SDS011;23977;53.078;18.248;2023-02-28T14:05:22;12.68;;;6.18;;
38162;SDS011;23977;53.078;18.248;2023-02-28T14:07:55;12.00;;;5.60;;
38162;SDS011;23977;53.078;18.248;2023-02-28T14:10:28;11.50;;;5.82;;
38162;SDS011;23977;53.078;18.248;2023-02-28T14:20:57;10.15;;;5.55;;
38162;SDS011;23977;53.078;18.248;2023-02-28T14:23:43;11.20;;;5.68;;
38162;SDS011;23977;53.078;18.248;2023-02-28T14:35:13;11.70;;;5.40;;
38162;SDS011;23977;53.078;18.248;2023-02-28T14:37:54;10.77;;;4.68;;
38162;SDS011;23977;53.078;18.248;2023-02-28T14:40:26;9.15;;;4.88;;
38162;SDS011;23977;53.078;18.248;2023-02-28T14:42:56;9.25;;;4.55;;
38162;SDS011;23977;53.078;18.248;2023-02-28T14:45:24;10.05;;;4.47;;
38162;SDS011;23977;53.078;18.248;2023-02-28T14:47:54;11.52;;;5.45;;
38162;SDS011;23977;53.078;18.248;2023-02-28T14:50:21;8.55;;;4.40;;
38162;SDS011;23977;53.078;18.248;2023-02-28T14:52:53;10.75;;;4.70;;
38162;SDS011;23977;53.078;18.248;2023-02-28T14:55:23;9.90;;;4.75;;
38162;SDS011;23977;53.078;18.248;2023-02-28T15:00:29;13.55;;;5.38;;
38162;SDS011;23977;53.078;18.248;2023-02-28T15:02:58;10.10;;;5.10;;
38162;SDS011;23977;53.078;18.248;2023-02-28T15:05:29;11.88;;;5.70;;
38162;SDS011;23977;53.078;18.248;2023-02-28T15:08:06;10.63;;;5.45;;
38162;SDS011;23977;53.078;18.248;2023-02-28T15:10:35;10.25;;;4.78;;
38162;SDS011;23977;53.078;18.248;2023-02-28T15:13:02;11.88;;;6.22;;
38162;SDS011;23977;53.078;18.248;2023-02-28T15:21:11;10.30;;;4.82;;
38162;SDS011;23977;53.078;18.248;2023-02-28T15:23:40;8.88;;;4.78;;
38162;SDS011;23977;53.078;18.248;2023-02-28T15:26:12;10.40;;;5.50;;
38162;SDS011;23977;53.078;18.248;2023-02-28T15:28:42;8.13;;;4.03;;
38162;SDS011;23977;53.078;18.248;2023-02-28T15:34:12;8.95;;;4.78;;
38162;SDS011;23977;53.078;18.248;2023-02-28T15:36:46;8.00;;;4.15;;
38162;SDS011;23977;53.078;18.248;2023-02-28T15:39:18;6.70;;;3.30;;
38162;SDS011;23977;53.078;18.248;2023-02-28T15:41:48;9.18;;;3.70;;
38162;SDS011;23977;53.078;18.248;2023-02-28T15:49:24;5.57;;;2.70;;
38162;SDS011;23977;53.078;18.248;2023-02-28T15:51:50;7.00;;;2.90;;
38162;SDS011;23977;53.078;18.248;2023-02-28T15:54:19;7.35;;;3.10;;
38162;SDS011;23977;53.078;18.248;2023-02-28T15:56:50;6.38;;;3.35;;
38162;SDS011;23977;53.078;18.248;2023-02-28T15:59:28;8.25;;;4.18;;
38162;SDS011;23977;53.078;18.248;2023-02-28T16:04:55;7.55;;;4.05;;
38162;SDS011;23977;53.078;18.248;2023-02-28T16:07:27;8.18;;;3.83;;
38162;SDS011;23977;53.078;18.248;2023-02-28T16:09:53;9.90;;;4.82;;
38162;SDS011;23977;53.078;18.248;2023-02-28T16:12:20;9.52;;;4.43;;
38162;SDS011;23977;53.078;18.248;2023-02-28T16:14:52;11.48;;;5.00;;
38162;SDS011;23977;53.078;18.248;2023-02-28T16:17:29;12.57;;;5.88;;
38162;SDS011;23977;53.078;18.248;2023-02-28T16:19:59;10.77;;;5.90;;
38162;SDS011;23977;53.078;18.248;2023-02-28T16:22:25;12.38;;;5.72;;
38162;SDS011;23977;53.078;18.248;2023-02-28T16:24:51;15.25;;;6.65;;
38162;SDS011;23977;53.078;18.248;2023-02-28T16:27:21;16.10;;;7.47;;
38162;SDS011;23977;53.078;18.248;2023-02-28T16:29:55;17.80;;;8.00;;